createdAt,value
2023-05-15T00:00:04.068Z,18.30
2023-05-15T00:05:09.624Z,18.50
2023-05-15T00:10:12.386Z,18.35
2023-05-15T00:15:14.243Z,20.60
2023-05-15T00:20:16.012Z,20.77
2023-05-15T00:25:19.551Z,20.35
2023-05-15T00:30:21.403Z,21.73
2023-05-15T00:35:23.591Z,22.40
2023-05-15T00:40:26.740Z,21.05
2023-05-15T00:45:30.327Z,23.75
2023-05-15T00:50:33.513Z,25.55
2023-05-15T00:55:36.502Z,26.30
2023-05-15T01:00:39.004Z,25.45
2023-05-15T01:05:41.084Z,28.58
2023-05-15T01:10:44.172Z,26.60
2023-05-15T01:15:46.221Z,28.05
2023-05-15T01:20:53.751Z,30.60
2023-05-15T01:26:30.541Z,30.63
2023-05-15T01:31:35.317Z,32.38
2023-05-15T01:36:43.348Z,32.38
2023-05-15T01:41:51.651Z,32.78
2023-05-15T01:46:57.980Z,33.65
2023-05-15T01:52:13.841Z,33.33
2023-05-15T01:57:16.403Z,32.15
2023-05-15T02:02:19.645Z,31.85
2023-05-15T02:07:22.145Z,33.22
2023-05-15T02:12:24.572Z,32.65
2023-05-15T02:17:28.034Z,32.33
2023-05-15T02:22:29.811Z,31.92
2023-05-15T02:27:42.799Z,33.78
2023-05-15T02:32:54.043Z,32.75
2023-05-15T02:38:00.264Z,31.55
2023-05-15T02:43:03.026Z,32.60
2023-05-15T02:48:05.719Z,30.77
2023-05-15T02:53:09.835Z,32.42
2023-05-15T02:58:11.812Z,29.38
2023-05-15T03:03:13.571Z,29.58
2023-05-15T03:08:15.357Z,29.10
2023-05-15T03:13:17.102Z,29.02
2023-05-15T03:18:19.675Z,29.42
2023-05-15T03:23:21.590Z,29.10
2023-05-15T03:28:23.384Z,28.38
2023-05-15T03:33:25.647Z,30.33
2023-05-15T03:38:27.537Z,29.75
2023-05-15T03:43:29.291Z,27.75
2023-05-15T03:48:31.234Z,29.52
2023-05-15T03:53:33.025Z,31.70
2023-05-15T03:58:34.795Z,29.73
2023-05-15T04:03:36.592Z,28.02
2023-05-15T04:08:39.660Z,29.00
2023-05-15T04:13:42.456Z,29.58
2023-05-15T04:18:44.255Z,29.02
2023-05-15T04:23:46.005Z,29.52
2023-05-15T04:29:00.168Z,31.55
2023-05-15T04:34:06.023Z,33.40
2023-05-15T04:39:08.420Z,34.88
2023-05-15T04:44:10.445Z,36.72
2023-05-15T04:49:12.313Z,37.05
2023-05-15T04:54:14.133Z,35.15
2023-05-15T04:59:16.616Z,35.00
2023-05-15T05:04:21.058Z,34.17
2023-05-15T05:09:22.962Z,33.45
2023-05-15T05:14:24.738Z,34.28
2023-05-15T05:19:28.343Z,32.83
2023-05-15T05:24:30.296Z,32.92
2023-05-15T05:29:32.435Z,31.55
2023-05-15T05:34:34.450Z,31.60
2023-05-15T05:39:36.201Z,32.88
2023-05-15T05:44:37.964Z,31.45
2023-05-15T05:49:40.563Z,35.35
2023-05-15T05:54:42.724Z,35.17
2023-05-15T05:59:45.967Z,35.05
2023-05-15T06:04:47.723Z,34.72
2023-05-15T06:09:49.705Z,34.53
2023-05-15T06:14:51.684Z,33.10
2023-05-15T06:19:54.632Z,32.53
2023-05-15T06:24:56.464Z,31.13
2023-05-15T06:29:58.539Z,31.77
2023-05-15T06:35:00.362Z,32.97
2023-05-15T06:40:02.207Z,31.50
2023-05-15T06:45:04.603Z,32.63
2023-05-15T06:50:07.041Z,33.38
2023-05-15T06:55:09.120Z,32.97
2023-05-15T07:00:11.595Z,32.65
2023-05-15T07:05:14.567Z,33.95
2023-05-15T07:10:16.692Z,31.92
2023-05-15T07:15:18.781Z,29.58
2023-05-15T07:20:20.793Z,29.15
2023-05-15T07:25:23.224Z,28.80
2023-05-15T07:30:25.798Z,28.60
2023-05-15T07:35:28.035Z,29.40
2023-05-15T07:40:30.324Z,28.05
2023-05-15T07:45:32.138Z,26.60
2023-05-15T07:50:35.042Z,27.52
2023-05-15T07:55:36.804Z,27.15
2023-05-15T08:00:38.726Z,28.08
2023-05-15T08:05:40.554Z,26.67
2023-05-15T08:10:42.341Z,26.67
2023-05-15T08:15:44.371Z,25.63
2023-05-15T08:20:46.548Z,26.30
2023-05-15T08:25:48.318Z,25.17
2023-05-15T08:30:50.118Z,23.92
2023-05-15T08:35:52.584Z,23.83
2023-05-15T08:40:57.752Z,25.17
2023-05-15T08:46:00.442Z,25.00
2023-05-15T08:51:03.739Z,28.92
2023-05-15T08:56:06.110Z,26.23
2023-05-15T09:01:08.426Z,27.77
2023-05-15T09:06:10.608Z,25.55
2023-05-15T09:11:13.683Z,25.92
2023-05-15T09:16:15.601Z,26.38
2023-05-15T09:21:29.025Z,23.20
2023-05-15T09:26:30.929Z,22.80
2023-05-15T09:31:36.464Z,22.30
2023-05-15T09:36:44.260Z,23.30
2023-05-15T09:41:46.077Z,24.25
2023-05-15T09:46:48.724Z,24.10
2023-05-15T09:51:50.817Z,24.30
2023-05-15T09:56:53.853Z,24.95
2023-05-15T10:01:55.698Z,24.92
2023-05-15T10:06:57.511Z,23.60
2023-05-15T10:11:59.510Z,23.75
2023-05-15T10:17:01.555Z,23.25
2023-05-15T10:22:04.477Z,23.60
2023-05-15T10:27:08.981Z,22.90
2023-05-15T10:32:12.173Z,22.75
2023-05-15T10:37:14.994Z,23.90
2023-05-15T10:42:18.048Z,24.67
2023-05-15T10:47:20.503Z,23.10
2023-05-15T10:52:22.479Z,24.85
2023-05-15T10:57:24.346Z,22.98
2023-05-15T11:02:29.468Z,22.42
2023-05-15T11:07:31.587Z,22.83
2023-05-15T11:13:09.103Z,22.83
2023-05-15T11:18:11.086Z,22.70
2023-05-15T11:23:12.959Z,25.70
2023-05-15T11:28:22.852Z,26.52
2023-05-15T11:33:24.773Z,28.10
2023-05-15T11:38:27.230Z,27.52
2023-05-15T11:43:30.760Z,29.27
2023-05-15T11:48:35.017Z,29.35
2023-05-15T11:53:39.147Z,31.48
2023-05-15T11:58:43.407Z,31.73
2023-05-15T12:03:49.191Z,30.70
2023-05-15T12:08:52.650Z,30.05
2023-05-15T12:13:55.269Z,29.10
2023-05-15T12:18:58.031Z,27.88
2023-05-15T12:24:07.775Z,33.70
2023-05-15T12:29:10.577Z,36.28
2023-05-15T12:34:12.452Z,39.00
2023-05-15T12:39:14.288Z,39.50
2023-05-15T12:44:19.758Z,42.10
2023-05-15T12:49:22.809Z,41.15
2023-05-15T12:54:24.775Z,40.80
2023-05-15T12:59:26.655Z,39.42
2023-05-15T13:04:28.453Z,38.03
2023-05-15T13:09:30.676Z,26.83
2023-05-15T13:14:33.526Z,28.13
2023-05-15T13:19:35.542Z,27.42
2023-05-15T13:24:37.425Z,25.85
2023-05-15T13:29:39.195Z,20.15
2023-05-15T13:34:41.068Z,15.10
2023-05-15T13:39:42.852Z,13.02
2023-05-15T13:44:44.656Z,7.28
2023-05-15T13:49:46.599Z,4.13
2023-05-15T13:54:48.465Z,3.17
2023-05-15T13:59:50.337Z,3.00
2023-05-15T14:04:55.778Z,3.50
2023-05-15T14:09:58.282Z,4.75
2023-05-15T14:15:01.129Z,4.65
2023-05-15T14:20:03.135Z,4.60
2023-05-15T14:25:06.261Z,4.43
2023-05-15T14:30:08.663Z,4.85
2023-05-15T14:35:10.766Z,5.47
2023-05-15T14:40:13.043Z,4.50
2023-05-15T14:45:14.976Z,5.30
2023-05-15T14:50:16.826Z,4.70
2023-05-15T14:55:22.653Z,5.63
2023-05-15T15:00:24.574Z,6.45
2023-05-15T15:05:26.450Z,6.00
2023-05-15T15:10:28.596Z,6.22
2023-05-15T15:15:31.717Z,6.05
2023-05-15T15:20:36.360Z,5.90
2023-05-15T15:25:38.198Z,5.72
2023-05-15T15:30:40.171Z,4.60
2023-05-15T15:35:41.933Z,4.95
2023-05-15T15:40:43.926Z,4.78
2023-05-15T15:45:46.113Z,4.57
2023-05-15T15:50:47.980Z,4.93
2023-05-15T15:55:49.889Z,4.78
2023-05-15T16:00:51.763Z,4.90
2023-05-15T16:05:53.589Z,5.72
2023-05-15T16:10:55.503Z,5.75
2023-05-15T16:15:57.370Z,5.07
2023-05-15T16:20:59.230Z,4.75
2023-05-15T16:26:02.347Z,4.28
2023-05-15T16:31:05.017Z,4.18
2023-05-15T16:36:07.008Z,4.72
2023-05-15T16:41:09.134Z,4.57
2023-05-15T16:46:10.974Z,4.30
2023-05-15T16:51:12.955Z,4.32
2023-05-15T16:56:14.771Z,3.55
2023-05-15T17:01:16.750Z,3.67
2023-05-15T17:06:18.650Z,3.22
2023-05-15T17:11:21.605Z,3.33
2023-05-15T17:16:23.491Z,3.25
2023-05-15T17:21:25.431Z,3.55
2023-05-15T17:26:27.277Z,2.92
2023-05-15T17:31:29.624Z,3.85
2023-05-15T17:36:32.346Z,3.83
2023-05-15T17:41:34.238Z,3.30
2023-05-15T17:46:36.083Z,2.75
2023-05-15T17:51:38.334Z,4.13
2023-05-15T17:56:40.117Z,3.13
2023-05-15T18:01:42.100Z,3.25
2023-05-15T18:06:43.963Z,2.88
2023-05-15T18:11:45.766Z,2.83
2023-05-15T18:16:47.620Z,3.58
2023-05-15T18:21:49.486Z,4.03
2023-05-15T18:26:51.465Z,3.88
2023-05-15T18:31:53.358Z,4.50
2023-05-15T18:36:55.272Z,3.60
2023-05-15T18:41:57.094Z,3.30
2023-05-15T18:46:58.919Z,3.70
2023-05-15T18:52:00.926Z,4.38
2023-05-15T18:57:02.801Z,4.30
2023-05-15T19:02:05.025Z,4.13
2023-05-15T19:07:07.175Z,3.85
2023-05-15T19:12:09.076Z,4.20
2023-05-15T19:17:11.272Z,5.28
2023-05-15T19:22:13.663Z,4.13
2023-05-15T19:27:15.493Z,4.20
2023-05-15T19:32:17.404Z,3.75
2023-05-15T19:37:19.907Z,3.72
2023-05-15T19:42:21.708Z,3.63
2023-05-15T19:47:23.586Z,3.78
2023-05-15T19:52:25.715Z,3.65
2023-05-15T19:57:27.529Z,3.53
2023-05-15T20:02:29.373Z,3.30
2023-05-15T20:07:31.205Z,3.83
2023-05-15T20:12:33.146Z,3.63
2023-05-15T20:17:35.170Z,3.67
2023-05-15T20:22:37.698Z,3.88
2023-05-15T20:27:40.916Z,3.17
2023-05-15T20:32:42.907Z,2.80
2023-05-15T20:37:45.434Z,3.00
2023-05-15T20:42:47.204Z,3.60
2023-05-15T20:47:49.783Z,2.80
2023-05-15T20:52:51.593Z,2.83
2023-05-15T20:57:53.559Z,2.75
2023-05-15T21:02:55.571Z,2.15
2023-05-15T21:07:58.182Z,2.38
2023-05-15T21:12:59.960Z,3.20
2023-05-15T21:18:02.075Z,2.72
2023-05-15T21:23:03.875Z,2.78
2023-05-15T21:28:05.791Z,2.58
2023-05-15T21:33:07.733Z,3.28
2023-05-15T21:38:09.675Z,2.35
2023-05-15T21:43:11.470Z,2.63
2023-05-15T21:48:13.225Z,3.28
2023-05-15T21:53:15.412Z,3.35
2023-05-15T21:58:17.608Z,2.95
2023-05-15T22:03:20.777Z,2.38
2023-05-15T22:08:22.806Z,1.85
2023-05-15T22:13:24.886Z,2.67
2023-05-15T22:18:28.899Z,3.28
2023-05-15T22:23:31.500Z,3.72
2023-05-15T22:28:33.575Z,2.75
2023-05-15T22:33:35.535Z,2.53
2023-05-15T22:38:37.370Z,3.03
2023-05-15T22:43:39.197Z,1.98
2023-05-15T22:48:41.446Z,2.67
2023-05-15T22:53:43.213Z,1.88
2023-05-15T22:58:45.087Z,2.20
2023-05-15T23:03:47.272Z,2.47
2023-05-15T23:08:50.501Z,2.40
2023-05-15T23:13:52.328Z,2.17
2023-05-15T23:18:57.926Z,2.28
2023-05-15T23:23:59.933Z,2.47
2023-05-15T23:29:01.753Z,3.08
2023-05-15T23:34:03.590Z,2.67
2023-05-15T23:39:05.419Z,2.83
2023-05-15T23:44:07.267Z,2.85
2023-05-15T23:49:09.324Z,1.92
2023-05-15T23:54:11.656Z,2.53
2023-05-15T23:59:13.850Z,3.17
